Nearby METAR Reports

 

EIDW - Dublin Airport, Ireland
Distance from station: ENE 79km
Updated: 18/08/2022 04:30
Mostly cloudy
Mostly cloudy
 Wind from varies
Wind: varies 6 km/h
Temperature: 15°C
Dew Point: 10°C
Humidity: 72%
Barometer: 1012 hPa
Clouds: Mostly cloudy
Visibility: 10 km
Cloud details: Few Clouds 762 m
Partly cloudy 3048 m
Mostly cloudy 6401 m
2022/08/18 03:30 EIDW 180330Z VRB03KT 9999 FEW025 SCT100 BKN210 15/10 Q1012 NOSIG
EIME - Casement (mil), Ireland
Distance from station: ENE 62km
Updated: 18/08/2022 04:00
Mostly cloudy
Mostly cloudy
 Wind from SSW
Wind: SSW 19 km/h
Temperature: 14°C
Dew Point: 10°C
Humidity: 77%
Barometer: 1012 hPa
Clouds: Mostly cloudy
Visibility: 10 km
Cloud details: Few Clouds 1402 m
Partly cloudy 2438 m
Mostly cloudy 6096 m
2022/08/18 03:00 EIME 180300Z 21010KT 9999 FEW046 SCT080 BKN200 14/10 Q1012
EIWF - Waterford Arpt, Ireland
Distance from station: S 111km
Updated: 17/08/2022 21:30
NOT Current
Clear
Clear
 Wind from calm
Wind: Calm
Temperature: 15°C
Dew Point: 12°C
Humidity: 82%
Barometer: 1017 hPa
Summary: Clear
Visibility: greater than 10 km
2022/08/17 20:30 EIWF 172030Z 00000KT CAVOK 15/12 Q1017
 
EINN - Shannon Airport, Ireland
Distance from station: WSW 117km
Updated: 18/08/2022 04:30
Light drizzle, Mostly cloudy
Light drizzle, Mostly cloudy
 Wind from S
Wind: S 19 km/h
Temperature: 15°C
Dew Point: 14°C
Humidity: 94%
Barometer: 1012 hPa
Summary: Light Drizzle
Clouds: Mostly cloudy
Visibility: 10 km
Cloud details: Few Clouds 122 m
Mostly cloudy 183 m
2022/08/18 03:30 EINN 180330Z 19010KT 9999 -DZ FEW004 BKN006 15/14 Q1012 NOSIG
EISG - Sligo Arpt, Ireland
Distance from station: NNW 148km
Updated: 17/08/2022 21:30
NOT Current
Overcast
Overcast
 Wind from varies
Wind: varies 9 km/h
Temperature: 14°C
Dew Point: 9°C
Humidity: 72%
Barometer: 1014 hPa
Clouds: Overcast
Visibility: 10 km
Cloud details: Overcast 1036 m
2022/08/17 20:30 EISG 172030Z VRB05KT 9999 OVC034 14/09 Q1014
EICK - Cork Arpt/Corcai, Ireland
Distance from station: SSW 165km
Updated: 18/08/2022 04:30
Light rain, Drizzle, Fog, Mostly cloudy
Light rain, Drizzle, Fog, Mostly cloudy
 Wind from SSW
Wind: SSW 13 km/h
Temperature: 16°C
Dew Point: 16°C
Humidity: 100%
Barometer: 1013 hPa
Summary: Light rain, Drizzle, Fog
Clouds: Mostly cloudy
Visibility: 1 km
Cloud details: Mostly cloudy 30 m
Mostly cloudy 61 m
2022/08/18 03:30 EICK 180330Z 21007KT 0700 R16/1200U R34/1000U -RADZ FG BKN001 BKN002 16/16 Q1013 NOSIG
 
EGAA - Belfast/Aldergro, United Kingdom
Distance from station: NNE 179km
Updated: 18/08/2022 04:50
Overcast
Overcast
 Wind from S
Wind: S 11 km/h
Temperature: 14°C
Dew Point: 10°C
Humidity: 77%
Barometer: 1010 hPa
Clouds: Overcast
Visibility: 10 km
Cloud details: Mostly cloudy 701 m
Overcast 853 m
2022/08/18 03:50 EGAA 180350Z AUTO 19006KT 160V220 9999 BKN023 OVC028 14/10 Q1010
EIKY - Kerry Arpt, Ireland
Distance from station: SW 182km
Updated: 17/08/2022 19:30
NOT Current
Overcast
Overcast
 Wind from SW
Wind: SW 11 km/h
Temperature: 14°C
Dew Point: 10°C
Humidity: 77%
Barometer: 1017 hPa
Clouds: Overcast
Visibility: 10 km
Cloud details: Mostly cloudy 671 m
Overcast 1463 m
2022/08/17 18:30 EIKY 171830Z 23006KT 9999 BKN022 OVC048 14/10 Q1017
EGAC - Belfast Harbour, United Kingdom
Distance from station: NNE 188km
Updated: 18/08/2022 04:50
Mostly cloudy
Mostly cloudy
 Wind from S
Wind: S 9 km/h
Temperature: 15°C
Dew Point: 13°C
Humidity: 88%
Barometer: 1011 hPa
Clouds: Mostly cloudy
Visibility: 10 km
Cloud details: Mostly cloudy 1097 m
2022/08/18 03:50 EGAC 180350Z AUTO 18005KT 9999 BKN036 15/13 Q1011
 
EGOV - Valley Raf, United Kingdom
Distance from station: E 188km
Updated: 18/08/2022 04:20
Mostly cloudy
Mostly cloudy
 Wind from S
Wind: S 22 km/h
Temperature: 17°C
Dew Point: 14°C
Humidity: 83%
Barometer: 1013 hPa
Clouds: Mostly cloudy
Visibility: 10 km
Cloud details: Mostly cloudy 518 m
Partly cloudy 1067 m
Mostly cloudy 2225 m
2022/08/18 03:20 EGOV 180320Z AUTO 19012KT 9999 BKN017/// SCT035/// BKN073/// 17/14 Q1013
EGNS - Isle Of Man/Rona, United Kingdom
Distance from station: ENE 207km
Updated: 18/08/2022 04:50
Few Clouds
Few Clouds
 Wind from SSW
Wind: SSW 19 km/h
Temperature: 15°C
Dew Point: 13°C
Humidity: 88%
Barometer: 1012 hPa
Clouds: Few Clouds
Visibility: 10 km
Cloud details: Few Clouds 1219 m
2022/08/18 03:50 EGNS 180350Z 20010KT 160V250 9999 FEW040 15/13 Q1012